Main page
METAR-TAF:

METAR-TAF

Airports :

Benbecula, Scotland

Benbecula Airport

latitude: 57-28N, longitude: 007-22W, elevation: 6 m

Current weather observation

The report was made 36 minutes ago, at 13:20 UTC
Wind 25 kt from the West
Temperature 12°C
Humidity 76%
Pressure 1003 hPa
Visibility 10 km or more

METAR: EGPL 241320Z AUTO 26025KT 9999 FEW023/// SCT031/// BKN043/// 12/08 Q1003

Time: 14:56 (13:56 UTC)

Forecast

The report was made 2 hours and 54 minutes ago, at 11:02 UTC
Forecast valid from 24 at 12 UTC to 24 at 15 UTC
Wind 22 kt from the West
Visibility 10 km or more
Few clouds at a height of 1500 ft
Scattered clouds at a height of 4500 ft
Temporary
from 24 at 12 UTC to 24 at 15 UTC
Wind 26 kt from the West with gusts up to 40 kt
Visibility: 6000 m
rain showers

TAF: EGPL 241102Z 2412/2415 26022KT 9999 FEW015 SCT045 TEMPO 2412/2415 27026G40KT 6000 SHRA

Weather observations and forecasts of more than 4000 airports (METAR and TAF reports).

The available stations are represented by yellow and red dots on the map.

Hover mouse over dot to see the name of the station.

Then click to see weather observations and forecasts.

To change the map : click on the green buttons with a black cross to zoom in, on the green button with a dash to zoom out, or on the green arrows for adjacent maps.


METAR-TAF: